WXM80 ListenWXM80 Stop

You find our weather info also at:

UK Metoffice

WeatherCloud

Weather Underground

Northeastern Weather Network

AWEKAS

Citizen Weather Observer Program (CWOP)

HAMweather, WeatherForYou, PWS Weather


Weather Underground History page Text

Daily Summary for November 8, 2017 Units:  English    Metric   Both
« Previous Day
Next Day »
Daily Weekly Monthly Yearly Custom
  High: Low: Average:
Temperature: 48.2 °F 40.4 °F 44.3 °F
Dew Point: 41.7 °F 37.4 °F 40 °F
Humidity: 96 % 74 % 85 %
Wind Speed: 15.1 mph 0.0 mph 4.2 mph
Wind Gust: 21.9 mph - -
Wind:- - ENE
Pressure: 30.26 in 30.00 in -
Precipitation: 0.27 in    
Historical Graphs
 
 
Tabular Data for November 8, 2017
Time Temperature Dew Point Pressure Wind Wind Speed Wind Gust Humidity Rainfall Rate (Hourly)
00:04 42.4 °F 41.3 °F 30.15 in NE 6.0 mph 10.4 mph 96 % 0.02 in
00:09 42.4 °F 41.3 °F 30.15 in NNE 6.0 mph 11.5 mph 96 % 0.02 in
00:14 42.4 °F 41.3 °F 30.14 in East 5.6 mph 15.0 mph 96 % 0.02 in
00:19 42.3 °F 41.2 °F 30.14 in NE 4.5 mph 11.5 mph 96 % 0.01 in
00:24 42.3 °F 41.2 °F 30.14 in NNE 9.1 mph 18.4 mph 96 % 0.01 in
00:29 42.2 °F 41.1 °F 30.14 in NNE 4.7 mph 8.1 mph 96 % 0.01 in
00:34 42.2 °F 41.1 °F 30.15 in NE 7.1 mph 12.0 mph 96 % 0.01 in
00:39 42.2 °F 41.1 °F 30.14 in NNE 6.2 mph 11.5 mph 96 % 0.01 in
00:44 42.1 °F 41.0 °F 30.14 in ENE 5.2 mph 7.0 mph 96 % 0.02 in
00:49 42.0 °F 40.9 °F 30.14 in NNE 6.9 mph 12.7 mph 96 % 0.02 in
00:54 42.0 °F 40.9 °F 30.14 in North 7.4 mph 13.8 mph 96 % 0.02 in
00:59 42.0 °F 40.9 °F 30.14 in NNE 6.4 mph 11.5 mph 96 % 0.02 in
01:04 41.9 °F 40.8 °F 30.14 in NE 8.1 mph 12.0 mph 96 % 0.01 in
01:09 41.9 °F 40.8 °F 30.14 in North 5.1 mph 8.1 mph 96 % 0.01 in
01:14 41.9 °F 40.8 °F 30.15 in North 4.8 mph 6.9 mph 96 % 0.01 in
01:19 42.0 °F 40.9 °F 30.14 in East 5.9 mph 9.2 mph 96 % 0.01 in
01:24 42.0 °F 40.9 °F 30.14 in North 5.9 mph 9.2 mph 96 % 0.02 in
01:29 41.9 °F 40.8 °F 30.15 in NNE 6.9 mph 11.5 mph 96 % 0.02 in
01:34 41.9 °F 40.8 °F 30.15 in NNE 7.3 mph 12.0 mph 96 % 0.02 in
01:39 41.8 °F 40.7 °F 30.16 in North 9.1 mph 15.0 mph 96 % 0.02 in
01:44 41.8 °F 40.7 °F 30.15 in NNE 5.2 mph 11.5 mph 96 % 0.01 in
01:49 41.9 °F 40.8 °F 30.15 in NNE 5.5 mph 11.5 mph 96 % 0.01 in
01:54 41.8 °F 40.7 °F 30.15 in NNE 4.5 mph 7.0 mph 96 % 0.01 in
01:59 41.6 °F 40.5 °F 30.15 in NE 5.8 mph 11.0 mph 96 % 0.01 in
02:04 41.7 °F 40.6 °F 30.15 in NNE 7.8 mph 15.0 mph 96 % 0.01 in
02:09 41.6 °F 40.5 °F 30.15 in North 10.3 mph 19.0 mph 96 % 0.02 in
02:14 41.6 °F 40.5 °F 30.15 in NNE 8.8 mph 18.4 mph 96 % 0.02 in
02:24 41.4 °F 40.3 °F 30.15 in NE 10.1 mph 16.1 mph 96 % 0.01 in
02:29 41.3 °F 40.2 °F 30.15 in NNE 6.1 mph 11.5 mph 96 % 0.01 in
02:34 41.3 °F 40.2 °F 30.15 in NE 7.2 mph 16.1 mph 96 % 0.01 in
02:39 41.2 °F 39.9 °F 30.15 in NE 11.4 mph 15.0 mph 95 % 0.01 in
02:45 41.0 °F 39.7 °F 30.14 in NE 10.6 mph 19.6 mph 95 % 0.01 in
02:50 40.9 °F 39.6 °F 30.14 in North 15.1 mph 21.9 mph 95 % 0.02 in
02:55 40.8 °F 39.5 °F 30.15 in ENE 11.0 mph 16.1 mph 95 % 0.02 in
03:00 40.7 °F 39.4 °F 30.15 in North 11.0 mph 19.6 mph 95 % 0.02 in
03:05 40.6 °F 39.0 °F 30.15 in NNE 9.8 mph 20.0 mph 94 % 0.01 in
03:10 40.7 °F 39.1 °F 30.14 in NNE 8.2 mph 12.7 mph 94 % 0.01 in
03:15 40.7 °F 39.4 °F 30.14 in North 9.2 mph 15.0 mph 95 % 0.01 in
03:20 40.7 °F 39.4 °F 30.14 in NE 12.2 mph 21.9 mph 95 % 0.01 in
03:25 40.7 °F 39.1 °F 30.15 in NE 9.2 mph 15.0 mph 94 % 0.01 in
03:30 40.7 °F 39.1 °F 30.15 in NNE 8.3 mph 13.0 mph 94 % 0.01 in
03:35 40.7 °F 39.1 °F 30.15 in NNW 7.8 mph 16.1 mph 94 % 0.02 in
03:40 40.7 °F 39.1 °F 30.15 in NE 5.3 mph 16.1 mph 94 % 0.02 in
03:45 40.7 °F 38.8 °F 30.16 in NNE 7.3 mph 11.5 mph 93 % 0.02 in
03:50 40.8 °F 38.9 °F 30.16 in NE 6.3 mph 11.5 mph 93 % 0.01 in
03:55 40.8 °F 38.9 °F 30.16 in NNE 6.7 mph 12.7 mph 93 % 0.01 in
04:00 40.9 °F 39.0 °F 30.17 in NNE 6.6 mph 10.4 mph 93 % 0.01 in
04:05 41.0 °F 39.4 °F 30.16 in NNE 6.3 mph 11.5 mph 94 % 0.01 in
04:10 41.1 °F 39.2 °F 30.16 in ENE 7.9 mph 14.0 mph 93 % 0.01 in
04:15 41.1 °F 39.2 °F 30.16 in NE 10.8 mph 19.6 mph 93 % 0.01 in
04:20 41.3 °F 39.4 °F 30.16 in NNE 9.5 mph 18.4 mph 93 % 0.01 in
04:25 41.4 °F 39.5 °F 30.16 in North 7.9 mph 17.3 mph 93 % 0.02 in
04:30 41.5 °F 39.3 °F 30.17 in NE 11.3 mph 16.1 mph 92 % 0.02 in
04:35 41.6 °F 39.4 °F 30.17 in ENE 8.1 mph 17.3 mph 92 % 0.01 in
04:40 41.7 °F 39.5 °F 30.17 in North 5.8 mph 11.0 mph 92 % 0.01 in
04:45 41.8 °F 39.6 °F 30.17 in North 8.5 mph 11.5 mph 92 % 0.01 in
04:50 41.8 °F 39.6 °F 30.18 in NNE 9.8 mph 15.0 mph 92 % 0.01 in
04:56 41.9 °F 39.4 °F 30.17 in NNE 7.0 mph 15.0 mph 91 % 0.00 in
05:01 41.9 °F 39.5 °F 30.17 in NNE 4.9 mph 8.1 mph 91 % 0.01 in
05:06 41.9 °F 39.5 °F 30.17 in NNE 8.8 mph 12.7 mph 91 % 0.01 in
05:11 41.9 °F 39.5 °F 30.17 in NNE 8.8 mph 12.7 mph 91 % 0.01 in
05:16 42.0 °F 39.6 °F 30.17 in ENE 4.0 mph 10.4 mph 91 % 0.02 in
05:21 42.0 °F 39.6 °F 30.17 in ENE 4.6 mph 6.9 mph 91 % 0.02 in
05:26 42.1 °F 39.7 °F 30.17 in NNE 4.8 mph 12.0 mph 91 % 0.01 in
05:31 42.1 °F 39.7 °F 30.18 in NE 3.5 mph 11.5 mph 91 % 0.01 in
05:36 42.1 °F 39.7 °F 30.18 in NE 5.5 mph 11.5 mph 91 % 0.01 in
05:41 42.1 °F 39.7 °F 30.18 in NE 4.5 mph 10.4 mph 91 % 0.01 in
05:46 42.1 °F 39.7 °F 30.18 in NNE 8.9 mph 16.1 mph 91 % 0.01 in
05:51 42.1 °F 39.4 °F 30.18 in North 8.7 mph 13.8 mph 90 % 0.01 in
05:56 42.1 °F 39.7 °F 30.18 in NNE 5.7 mph 13.0 mph 91 % 0.01 in
06:01 42.1 °F 39.7 °F 30.18 in NNE 6.8 mph 11.5 mph 91 % 0.01 in
06:11 42.1 °F 39.7 °F 30.19 in ENE 7.7 mph 12.7 mph 91 % 0.02 in
06:16 42.1 °F 39.4 °F 30.19 in NNE 7.9 mph 15.0 mph 90 % 0.01 in
06:21 42.1 °F 39.4 °F 30.20 in ENE 6.8 mph 11.5 mph 90 % 0.01 in
06:26 42.1 °F 39.4 °F 30.20 in NNE 8.9 mph 16.1 mph 90 % 0.01 in
06:31 42.0 °F 39.3 °F 30.20 in NNE 9.2 mph 13.8 mph 90 % 0.01 in
06:36 42.0 °F 39.0 °F 30.21 in NNE 7.3 mph 11.0 mph 89 % 0.01 in
06:41 42.0 °F 39.3 °F 30.21 in North 3.0 mph 9.2 mph 90 % 0.01 in
06:46 42.0 °F 39.3 °F 30.21 in ENE 4.7 mph 11.5 mph 90 % 0.01 in
06:51 42.0 °F 39.3 °F 30.21 in North 4.9 mph 8.1 mph 90 % 0.01 in
06:56 41.9 °F 39.2 °F 30.22 in North 5.9 mph 7.0 mph 90 % 0.02 in
07:01 41.9 °F 38.9 °F 30.22 in East 6.1 mph 8.1 mph 89 % 0.02 in
07:06 41.9 °F 38.9 °F 30.22 in NE 4.5 mph 10.4 mph 89 % 0.01 in
07:11 41.9 °F 39.2 °F 30.23 in North 5.8 mph 10.0 mph 90 % 0.01 in
07:16 41.9 °F 38.9 °F 30.23 in NNE 5.1 mph 6.9 mph 89 % 0.01 in
07:21 42.0 °F 39.3 °F 30.23 in NNE 2.6 mph 9.2 mph 90 % 0.01 in
07:26 42.0 °F 39.3 °F 30.24 in NNE 6.7 mph 11.5 mph 90 % 0.01 in
07:32 42.1 °F 39.4 °F 30.24 in ENE 4.7 mph 13.8 mph 90 % 0.01 in
07:37 42.2 °F 39.5 °F 30.24 in NE 4.6 mph 7.0 mph 90 % 0.01 in
07:42 42.2 °F 39.5 °F 30.25 in ENE 5.8 mph 10.4 mph 90 % 0.01 in
07:47 42.2 °F 39.2 °F 30.25 in NNE 6.1 mph 11.5 mph 89 % 0.02 in
07:52 42.2 °F 39.2 °F 30.25 in NNE 4.6 mph 11.5 mph 89 % 0.02 in
07:57 42.2 °F 39.2 °F 30.24 in NNE 5.7 mph 9.2 mph 89 % 0.01 in
08:02 42.2 °F 39.2 °F 30.24 in NNE 4.9 mph 7.0 mph 89 % 0.01 in
08:07 42.2 °F 39.5 °F 30.24 in ENE 8.7 mph 12.7 mph 90 % 0.01 in
08:12 42.2 °F 39.2 °F 30.24 in NE 5.5 mph 10.4 mph 89 % 0.01 in
08:17 42.3 °F 39.3 °F 30.24 in NNE 4.5 mph 9.0 mph 89 % 0.01 in
08:22 42.4 °F 39.4 °F 30.24 in ENE 5.0 mph 9.2 mph 89 % 0.01 in
08:27 42.4 °F 39.4 °F 30.24 in East 3.4 mph 9.0 mph 89 % 0.01 in
08:32 42.4 °F 39.4 °F 30.24 in NE 3.6 mph 9.2 mph 89 % 0.01 in
08:37 42.5 °F 39.5 °F 30.24 in ENE 5.9 mph 9.2 mph 89 % 0.01 in
08:42 42.6 °F 39.6 °F 30.24 in North 4.8 mph 11.5 mph 89 % 0.02 in
08:47 42.7 °F 40.0 °F 30.24 in ENE 5.0 mph 11.0 mph 90 % 0.01 in
08:52 42.7 °F 39.7 °F 30.24 in NE 3.5 mph 8.1 mph 89 % 0.01 in
08:57 42.7 °F 39.7 °F 30.24 in North 5.0 mph 12.0 mph 89 % 0.01 in
09:02 42.8 °F 39.8 °F 30.24 in ENE 5.5 mph 8.1 mph 89 % 0.01 in
09:07 42.8 °F 39.5 °F 30.23 in ENE 8.3 mph 11.5 mph 88 % 0.01 in
09:12 42.9 °F 39.6 °F 30.24 in NNE 3.9 mph 12.0 mph 88 % 0.01 in
09:17 42.9 °F 39.6 °F 30.24 in ENE 4.0 mph 10.4 mph 88 % 0.01 in
09:22 42.9 °F 39.6 °F 30.24 in NE 4.1 mph 8.1 mph 88 % 0.01 in
09:27 43.0 °F 39.7 °F 30.24 in NE 5.5 mph 9.2 mph 88 % 0.01 in
09:32 43.0 °F 39.7 °F 30.24 in NE 7.5 mph 10.4 mph 88 % 0.02 in
09:37 43.0 °F 39.7 °F 30.24 in ENE 5.2 mph 10.4 mph 88 % 0.02 in
09:42 43.1 °F 39.8 °F 30.24 in ENE 5.8 mph 8.1 mph 88 % 0.01 in
09:52 43.1 °F 39.5 °F 30.25 in NE 4.3 mph 6.9 mph 87 % 0.01 in
09:57 43.1 °F 39.5 °F 30.24 in NNE 2.9 mph 10.4 mph 87 % 0.01 in
10:02 43.2 °F 39.6 °F 30.25 in East 6.4 mph 8.1 mph 87 % 0.01 in
10:07 43.2 °F 39.6 °F 30.25 in NNE 7.0 mph 9.2 mph 87 % 0.01 in
10:12 43.3 °F 39.7 °F 30.25 in ENE 4.0 mph 10.4 mph 87 % 0.01 in
10:17 43.4 °F 39.8 °F 30.25 in NE 7.4 mph 11.5 mph 87 % 0.01 in
10:22 43.4 °F 39.5 °F 30.25 in East 3.4 mph 11.5 mph 86 % 0.01 in
10:27 43.4 °F 39.5 °F 30.24 in NE 4.3 mph 6.9 mph 86 % 0.02 in
10:32 43.5 °F 39.9 °F 30.24 in ENE 6.4 mph 10.0 mph 87 % 0.01 in
10:37 43.5 °F 39.3 °F 30.24 in ENE 7.2 mph 9.0 mph 85 % 0.01 in
10:38 43.5 °F 39.3 °F 30.24 in East 8.1 mph 12.7 mph 85 % 0.01 in
10:43 43.6 °F 39.7 °F 30.24 in NE 3.4 mph 6.9 mph 86 % 0.01 in
10:48 43.8 °F 39.9 °F 30.24 in NE 4.2 mph 11.5 mph 86 % 0.01 in
10:53 43.9 °F 39.7 °F 30.24 in North 5.5 mph 9.2 mph 85 % 0.01 in
10:58 44.0 °F 39.8 °F 30.24 in ENE 4.3 mph 8.0 mph 85 % 0.01 in
11:03 44.1 °F 39.6 °F 30.23 in ENE 7.5 mph 9.0 mph 84 % 0.01 in
11:08 44.2 °F 39.7 °F 30.23 in ENE 7.4 mph 11.5 mph 84 % 0.01 in
11:13 44.3 °F 39.8 °F 30.23 in ENE 2.7 mph 7.0 mph 84 % 0.01 in
11:18 44.5 °F 40.3 °F 30.23 in North 2.6 mph 3.5 mph 85 % 0.01 in
11:23 44.7 °F 40.2 °F 30.23 in NE 5.7 mph 9.2 mph 84 % 0.01 in
11:28 44.9 °F 40.0 °F 30.23 in NE 4.9 mph 8.1 mph 83 % 0.01 in
11:34 45.1 °F 40.2 °F 30.23 in ENE 5.2 mph 10.0 mph 83 % 0.01 in
11:39 45.2 °F 40.0 °F 30.22 in North 5.6 mph 8.0 mph 82 % 0.01 in
11:44 45.4 °F 40.5 °F 30.23 in ENE 6.7 mph 11.5 mph 83 % 0.01 in
11:49 45.6 °F 40.4 °F 30.23 in NNE 4.1 mph 9.2 mph 82 % 0.01 in
11:54 45.8 °F 40.0 °F 30.22 in ENE 5.5 mph 9.2 mph 80 % 0.01 in
12:09 46.3 °F 40.5 °F 30.23 in ENE 5.6 mph 9.2 mph 80 % 0.01 in
12:14 46.5 °F 40.7 °F 30.22 in East 6.5 mph 12.7 mph 80 % 0.01 in
12:19 46.5 °F 40.3 °F 30.23 in East 6.9 mph 9.2 mph 79 % 0.02 in
12:24 46.3 °F 39.5 °F 30.22 in NE 6.3 mph 9.2 mph 77 % 0.02 in
12:29 46.3 °F 39.8 °F 30.22 in East 3.3 mph 8.1 mph 78 % 0.01 in
12:34 46.5 °F 40.3 °F 30.22 in ENE 5.3 mph 8.1 mph 79 % 0.01 in
12:39 46.7 °F 40.5 °F 30.22 in NE 3.2 mph 6.9 mph 79 % 0.01 in
12:44 46.8 °F 40.3 °F 30.21 in ENE 1.9 mph 4.0 mph 78 % 0.01 in
12:45 46.8 °F 40.6 °F 30.21 in NE 5.7 mph 6.9 mph 79 % 0.01 in
12:51 47.0 °F 40.5 °F 30.21 in ENE 5.0 mph 7.0 mph 78 % 0.00 in
12:56 47.2 °F 40.7 °F 30.21 in NE 5.0 mph 8.0 mph 78 % 0.00 in
13:01 47.5 °F 41.0 °F 30.21 in NNE 2.2 mph 5.0 mph 78 % 0.01 in
13:06 47.7 °F 40.8 °F 30.21 in ENE 6.6 mph 10.4 mph 77 % 0.01 in
13:11 47.8 °F 40.6 °F 30.21 in ENE 7.0 mph 11.5 mph 76 % 0.02 in
13:16 47.9 °F 41.0 °F 30.21 in NE 2.6 mph 4.6 mph 77 % 0.01 in
13:21 47.9 °F 40.0 °F 30.21 in NE 4.5 mph 9.2 mph 74 % 0.01 in
13:26 48.0 °F 40.8 °F 30.20 in ENE 2.9 mph 4.6 mph 76 % 0.01 in
13:31 48.1 °F 40.5 °F 30.20 in East 4.7 mph 9.2 mph 75 % 0.01 in
13:36 48.0 °F 40.8 °F 30.21 in NNE 4.1 mph 5.8 mph 76 % 0.01 in
13:41 48.0 °F 40.5 °F 30.21 in ENE 4.0 mph 8.1 mph 75 % 0.01 in
13:46 47.9 °F 40.7 °F 30.20 in ENE 5.8 mph 9.2 mph 76 % 0.01 in
13:51 48.0 °F 40.8 °F 30.20 in East 5.5 mph 8.0 mph 76 % 0.01 in
13:56 47.9 °F 40.4 °F 30.21 in ENE 3.3 mph 8.1 mph 75 % 0.02 in
14:01 47.9 °F 40.7 °F 30.21 in NE 0.3 mph 3.5 mph 76 % 0.02 in
14:06 48.0 °F 41.1 °F 30.21 in ENE 4.9 mph 9.0 mph 77 % 0.02 in
14:11 48.0 °F 40.5 °F 30.21 in ENE 3.0 mph 3.5 mph 75 % 0.01 in
14:16 48.0 °F 41.1 °F 30.21 in ENE 2.8 mph 4.6 mph 77 % 0.01 in
14:21 48.0 °F 41.1 °F 30.21 in East 4.2 mph 5.0 mph 77 % 0.01 in
14:26 48.0 °F 41.1 °F 30.21 in NNE 1.5 mph 3.5 mph 77 % 0.01 in
14:31 48.1 °F 40.9 °F 30.21 in NNE 1.9 mph 5.8 mph 76 % 0.01 in
14:36 48.1 °F 41.2 °F 30.21 in ENE 2.3 mph 3.0 mph 77 % 0.01 in
14:41 48.1 °F 41.2 °F 30.21 in ENE 1.1 mph 4.6 mph 77 % 0.01 in
14:46 48.2 °F 41.3 °F 30.21 in ENE 2.3 mph 5.0 mph 77 % 0.01 in
14:51 48.2 °F 41.3 °F 30.21 in ENE 2.7 mph 3.5 mph 77 % 0.02 in
14:56 48.2 °F 41.3 °F 30.21 in ENE 1.3 mph 3.5 mph 77 % 0.01 in
15:01 48.2 °F 41.3 °F 30.21 in ENE 1.6 mph 3.5 mph 77 % 0.01 in
15:06 48.2 °F 41.3 °F 30.22 in NNE 2.5 mph 5.0 mph 77 % 0.01 in
15:11 48.2 °F 41.7 °F 30.21 in ENE 1.6 mph 3.5 mph 78 % 0.01 in
15:16 48.2 °F 41.3 °F 30.22 in NE 3.5 mph 6.9 mph 77 % 0.01 in
15:21 48.2 °F 41.3 °F 30.22 in ENE 2.9 mph 4.0 mph 77 % 0.01 in
15:27 48.2 °F 41.3 °F 30.22 in North 2.8 mph 3.5 mph 77 % 0.01 in
15:32 48.1 °F 41.2 °F 30.22 in NE 1.7 mph 3.5 mph 77 % 0.01 in
15:37 48.1 °F 41.2 °F 30.22 in ENE 2.3 mph 5.0 mph 77 % 0.02 in
15:42 48.0 °F 41.1 °F 30.22 in ENE 2.6 mph 4.6 mph 77 % 0.02 in
15:47 47.9 °F 41.4 °F 30.22 in NE 1.2 mph 3.5 mph 78 % 0.01 in
15:52 47.9 °F 41.4 °F 30.22 in ENE 3.1 mph 4.6 mph 78 % 0.01 in
15:57 47.8 °F 40.9 °F 30.22 in ENE 0.9 mph 3.5 mph 77 % 0.01 in
16:02 47.8 °F 40.9 °F 30.22 in ENE 0.2 mph 4.6 mph 77 % 0.01 in
16:07 47.7 °F 41.2 °F 30.22 in ENE 1.8 mph 3.5 mph 78 % 0.01 in
16:12 47.7 °F 41.2 °F 30.22 in NNE 0.6 mph 4.6 mph 78 % 0.01 in
16:17 47.6 °F 41.1 °F 30.22 in ENE 0.8 mph 3.5 mph 78 % 0.01 in
16:22 47.6 °F 40.7 °F 30.22 in NE 2.2 mph 3.5 mph 77 % 0.01 in
16:27 47.5 °F 40.6 °F 30.22 in NNE 1.9 mph 3.5 mph 77 % 0.01 in
16:32 47.4 °F 40.9 °F 30.22 in NNE 0.4 mph 2.3 mph 78 % 0.02 in
16:37 47.4 °F 40.6 °F 30.22 in NNE 1.4 mph 3.5 mph 77 % 0.01 in
16:42 47.3 °F 40.8 °F 30.22 in NNE 1.2 mph 2.3 mph 78 % 0.01 in
16:47 47.2 °F 40.4 °F 30.22 in Calm     77 % 0.01 in
16:52 47.2 °F 40.7 °F 30.23 in ENE 1.3 mph 2.0 mph 78 % 0.01 in
16:58 47.2 °F 40.7 °F 30.23 in Calm   3.5 mph 78 % 0.01 in
17:03 47.2 °F 40.7 °F 30.23 in NE 0.2 mph 3.5 mph 78 % 0.01 in
17:08 47.2 °F 41.0 °F 30.24 in Calm     79 % 0.01 in
17:13 47.1 °F 41.2 °F 30.24 in Calm     80 % 0.01 in
17:18 47.2 °F 41.3 °F 30.24 in Calm   1.2 mph 80 % 0.01 in
17:23 47.1 °F 41.2 °F 30.23 in NNE 0.4 mph 2.3 mph 80 % 0.01 in
17:28 47.1 °F 41.2 °F 30.24 in Calm     80 % 0.02 in
17:33 47.0 °F 41.1 °F 30.24 in North 2.2 mph 3.5 mph 80 % 0.01 in
17:38 47.0 °F 41.1 °F 30.24 in Calm     80 % 0.01 in
17:43 47.0 °F 41.1 °F 30.24 in North 1.2 mph 4.6 mph 80 % 0.01 in
17:48 46.9 °F 40.7 °F 30.24 in NNW 5.5 mph 6.9 mph 79 % 0.01 in
17:53 46.9 °F 40.7 °F 30.24 in NNE 3.4 mph 6.9 mph 79 % 0.01 in
17:58 46.9 °F 40.7 °F 30.24 in North 2.7 mph 3.5 mph 79 % 0.01 in
18:03 46.9 °F 40.7 °F 30.24 in NNE 0.4 mph 3.5 mph 79 % 0.01 in
18:08 47.0 °F 41.1 °F 30.24 in North 0.7 mph 3.5 mph 80 % 0.01 in
18:13 46.9 °F 41.1 °F 30.24 in North 0.5 mph 3.5 mph 80 % 0.01 in
18:19 47.0 °F 40.8 °F 30.25 in North 0.7 mph 3.0 mph 79 % 0.01 in
18:24 47.0 °F 40.8 °F 30.25 in NNE 0.8 mph 4.0 mph 79 % 0.01 in
18:29 47.0 °F 40.5 °F 30.25 in North 2.2 mph 3.5 mph 78 % 0.00 in
18:34 47.0 °F 40.5 °F 30.25 in North 3.1 mph 4.6 mph 78 % 0.01 in
18:39 47.0 °F 40.5 °F 30.25 in NNE 1.5 mph 5.8 mph 78 % 0.01 in
18:44 47.0 °F 40.5 °F 30.25 in NNE 2.3 mph 4.6 mph 78 % 0.01 in
18:49 47.1 °F 40.6 °F 30.25 in North 4.5 mph 6.9 mph 78 % 0.01 in
18:54 47.2 °F 40.7 °F 30.25 in NNE 4.0 mph 5.8 mph 78 % 0.01 in
18:59 47.2 °F 40.7 °F 30.24 in North 4.2 mph 6.9 mph 78 % 0.01 in
19:04 47.2 °F 41.0 °F 30.25 in NE 6.7 mph 9.2 mph 79 % 0.01 in
19:09 47.3 °F 41.1 °F 30.25 in NNW 3.8 mph 5.0 mph 79 % 0.01 in
19:14 47.3 °F 41.1 °F 30.25 in North 3.0 mph 6.0 mph 79 % 0.01 in
19:19 47.3 °F 41.1 °F 30.25 in NNE 0.9 mph 3.5 mph 79 % 0.01 in
19:24 47.3 °F 40.8 °F 30.25 in NNE 3.9 mph 10.4 mph 78 % 0.01 in
19:29 47.4 °F 40.6 °F 30.25 in NNE 2.2 mph 5.0 mph 77 % 0.01 in
19:34 47.4 °F 40.6 °F 30.25 in NNE 3.7 mph 8.1 mph 77 % 0.01 in
19:39 47.4 °F 40.9 °F 30.25 in NNE 4.1 mph 8.0 mph 78 % 0.01 in
19:44 47.4 °F 41.2 °F 30.25 in NNE 3.7 mph 5.8 mph 79 % 0.01 in
19:49 47.4 °F 41.2 °F 30.25 in NNE 4.5 mph 5.0 mph 79 % 0.01 in
19:54 47.4 °F 41.2 °F 30.25 in NE 1.9 mph 6.9 mph 79 % 0.01 in
19:59 47.4 °F 40.9 °F 30.26 in ENE 3.1 mph 7.0 mph 78 % 0.01 in
20:04 47.3 °F 40.5 °F 30.26 in NNE 3.0 mph 8.1 mph 77 % 0.01 in
20:09 47.3 °F 40.8 °F 30.26 in NE 1.2 mph 8.1 mph 78 % 0.01 in
20:14 47.3 °F 40.8 °F 30.26 in North 3.2 mph 5.0 mph 78 % 0.01 in
20:19 47.2 °F 40.7 °F 30.26 in NNE 2.1 mph 6.0 mph 78 % 0.01 in
20:24 47.1 °F 40.3 °F 30.26 in North 1.5 mph 4.6 mph 77 % 0.01 in
20:29 47.0 °F 40.2 °F 30.25 in NNE 2.2 mph 3.5 mph 77 % 0.01 in
20:34 46.9 °F 39.7 °F 30.26 in NNE 3.3 mph 3.5 mph 76 % 0.00 in
20:40 46.8 °F 40.0 °F 30.26 in ENE 0.4 mph 2.0 mph 77 % 0.00 in
20:43 46.7 °F 39.9 °F 30.26 in Calm     77 % 0.00 in
20:46 46.6 °F 39.8 °F 30.26 in North 0.7 mph 2.3 mph 77 % 0.01 in
20:49 46.5 °F 39.7 °F 30.26 in North 2.7 mph 8.1 mph 77 % 0.01 in
20:54 46.3 °F 39.5 °F 30.25 in Calm   3.5 mph 77 % 0.01 in
20:59 46.2 °F 39.4 °F 30.25 in Calm     77 % 0.01 in
21:04 46.1 °F 39.3 °F 30.25 in NNE 2.6 mph 3.5 mph 77 % 0.01 in
21:09 45.9 °F 39.1 °F 30.24 in Calm     77 % 0.01 in
21:14 45.7 °F 39.2 °F 30.25 in ENE 1.7 mph 3.5 mph 78 % 0.01 in
21:19 45.6 °F 39.1 °F 30.25 in ENE 1.9 mph 5.0 mph 78 % 0.01 in
21:24 45.4 °F 39.3 °F 30.24 in ENE 2.7 mph 4.6 mph 79 % 0.01 in
21:29 45.4 °F 39.3 °F 30.24 in ENE 0.8 mph 2.3 mph 79 % 0.01 in
21:32 45.3 °F 39.2 °F 30.24 in Calm   1.2 mph 79 % 0.01 in
21:37 45.2 °F 39.1 °F 30.24 in Calm   1.2 mph 79 % 0.01 in
21:42 45.1 °F 39.3 °F 30.24 in Calm   1.2 mph 80 % 0.01 in
21:47 44.9 °F 39.4 °F 30.24 in Calm   1.2 mph 81 % 0.00 in
21:52 44.7 °F 39.2 °F 30.24 in Calm   1.2 mph 81 % 0.00 in
21:57 44.5 °F 39.0 °F 30.24 in NNE 0.2 mph   81 % 0.00 in
22:02 44.2 °F 39.1 °F 30.24 in Calm     82 % 0.01 in
22:07 44.0 °F 38.9 °F 30.24 in NE 0.2 mph 2.3 mph 82 % 0.01 in
22:12 43.7 °F 38.6 °F 30.24 in NE 0.8 mph 2.0 mph 82 % 0.01 in
22:17 43.4 °F 38.6 °F 30.24 in Calm     83 % 0.01 in
22:22 43.2 °F 38.4 °F 30.23 in Calm     83 % 0.01 in
22:23 43.1 °F 38.3 °F 30.23 in Calm     83 % 0.01 in
22:28 42.9 °F 38.4 °F 30.00 in Calm     84 % 0.01 in
22:29 42.9 °F 38.4 °F 30.00 in Calm     84 % 0.01 in
22:33 42.7 °F 38.2 °F 30.23 in Calm   2.3 mph 84 % 0.01 in
22:38 42.5 °F 38.3 °F 30.23 in Calm     85 % 0.01 in
22:43 42.2 °F 38.0 °F 30.23 in Calm     85 % 0.01 in
22:46 42.1 °F 38.2 °F 30.23 in Calm     86 % 0.01 in
22:51 41.9 °F 38.0 °F 30.22 in Calm     86 % 0.01 in
22:56 41.7 °F 37.8 °F 30.22 in Calm     86 % 0.01 in
23:01 41.6 °F 38.0 °F 30.23 in Calm   1.2 mph 87 % 0.00 in
23:07 41.4 °F 37.8 °F 30.22 in Calm     87 % 0.00 in
23:12 41.3 °F 37.7 °F 30.22 in NE 0.1 mph 1.2 mph 87 % 0.00 in
23:17 41.1 °F 37.5 °F 30.22 in Calm   2.3 mph 87 % 0.00 in
23:22 41.0 °F 37.7 °F 30.22 in Calm     88 % 0.00 in
23:27 40.9 °F 37.6 °F 30.22 in NE 1.3 mph 2.3 mph 88 % 0.01 in
23:32 40.8 °F 37.5 °F 30.22 in Calm     88 % 0.01 in
23:37 40.7 °F 37.7 °F 30.23 in Calm     89 % 0.01 in
23:42 40.6 °F 37.6 °F 30.23 in NE 2.2 mph 3.0 mph 89 % 0.01 in
23:47 40.5 °F 37.5 °F 30.22 in Calm     89 % 0.01 in
23:52 40.5 °F 37.5 °F 30.23 in NE 0.1 mph 2.3 mph 89 % 0.01 in
23:57 40.4 °F 37.4 °F 30.23 in NE 1.0 mph 2.3 mph 89 % 0.01 in
Crab Meadow Weather
Compliments of Weather Underground - 3 mb

Script developed by  Jim McMurry - jmcmurry@mwt.net Adapted for the template by  Wim van der Kuil - Leuven-Template.eu

Hurricanes: Hurricanes are classified into five categories, based on their wind speeds and potential to cause damage. * Category One -- Winds 74-95 miles per hour * Category Two -- Winds 96-110 miles per hour * Category Three -- Winds 111-130 miles per hour * Category Four -- Winds 131-155 miles per hour * Category Five -- Winds greater than 155 miles per hour.